sensor_id;sensor_type;location;lat;lon;timestamp;pressure;altitude;pressure_sealevel;temperature;humidity
26563;BME280;14217;50.986;5.826;2023-04-08T00:00:36;101575.28;;;18.82;41.51
26563;BME280;14217;50.986;5.826;2023-04-08T00:05:38;101577.94;;;18.82;41.69
26563;BME280;14217;50.986;5.826;2023-04-08T00:10:40;101588.59;;;18.80;41.73
26563;BME280;14217;50.986;5.826;2023-04-08T00:15:42;101585.06;;;18.80;41.68
26563;BME280;14217;50.986;5.826;2023-04-08T00:20:44;101590.47;;;18.77;41.68
26563;BME280;14217;50.986;5.826;2023-04-08T00:25:46;101592.19;;;18.78;41.92
26563;BME280;14217;50.986;5.826;2023-04-08T00:30:48;101591.25;;;18.80;41.50
26563;BME280;14217;50.986;5.826;2023-04-08T00:35:50;101593.13;;;18.77;41.65
26563;BME280;14217;50.986;5.826;2023-04-08T00:40:53;101590.47;;;18.77;41.80
26563;BME280;14217;50.986;5.826;2023-04-08T00:45:55;101598.47;;;18.75;41.92
26563;BME280;14217;50.986;5.826;2023-04-08T00:50:57;101601.09;;;18.77;41.75
26563;BME280;14217;50.986;5.826;2023-04-08T00:55:59;101597.50;;;18.78;41.83
26563;BME280;14217;50.986;5.826;2023-04-08T01:01:11;101600.19;;;18.76;41.81
26563;BME280;14217;50.986;5.826;2023-04-08T01:06:33;101595.00;;;18.73;41.83
26563;BME280;14217;50.986;5.826;2023-04-08T01:11:42;101606.34;;;18.78;41.76
26563;BME280;14217;50.986;5.826;2023-04-08T01:16:45;101607.16;;;18.80;41.53
26563;BME280;14217;50.986;5.826;2023-04-08T01:21:47;101605.34;;;18.82;41.43
26563;BME280;14217;50.986;5.826;2023-04-08T01:26:50;101598.47;;;18.75;41.89
26563;BME280;14217;50.986;5.826;2023-04-08T01:31:53;101602.81;;;18.78;41.88
26563;BME280;14217;50.986;5.826;2023-04-08T01:36:57;101597.50;;;18.78;41.83
26563;BME280;14217;50.986;5.826;2023-04-08T01:41:59;101598.38;;;18.78;41.89
26563;BME280;14217;50.986;5.826;2023-04-08T01:47:03;101590.47;;;18.77;41.94
26563;BME280;14217;50.986;5.826;2023-04-08T01:52:06;101591.31;;;18.77;41.68
26563;BME280;14217;50.986;5.826;2023-04-08T01:57:11;101595.69;;;18.80;41.83
26563;BME280;14217;50.986;5.826;2023-04-08T02:02:16;101596.56;;;18.80;41.69
26563;BME280;14217;50.986;5.826;2023-04-08T02:07:21;101602.81;;;18.78;41.76
26563;BME280;14217;50.986;5.826;2023-04-08T02:12:23;101605.47;;;18.78;41.84
26563;BME280;14217;50.986;5.826;2023-04-08T02:17:38;101603.78;;;18.75;41.70
26563;BME280;14217;50.986;5.826;2023-04-08T02:22:47;101607.25;;;18.77;41.92
26563;BME280;14217;50.986;5.826;2023-04-08T02:27:51;101605.44;;;18.79;41.92
26563;BME280;14217;50.986;5.826;2023-04-08T02:32:55;101614.34;;;18.77;41.99
26563;BME280;14217;50.986;5.826;2023-04-08T02:37:58;101617.00;;;18.77;41.83
26563;BME280;14217;50.986;5.826;2023-04-08T02:43:00;101614.22;;;18.81;41.87
26563;BME280;14217;50.986;5.826;2023-04-08T02:48:02;101615.34;;;18.74;41.82
26563;BME280;14217;50.986;5.826;2023-04-08T02:53:04;101617.88;;;18.79;41.89
26563;BME280;14217;50.986;5.826;2023-04-08T02:58:06;101616.25;;;18.73;42.08
26563;BME280;14217;50.986;5.826;2023-04-08T03:03:08;101613.41;;;18.79;41.60
26563;BME280;14217;50.986;5.826;2023-04-08T03:08:10;101624.03;;;18.78;41.74
26563;BME280;14217;50.986;5.826;2023-04-08T03:13:12;101626.69;;;18.78;41.77
26563;BME280;14217;50.986;5.826;2023-04-08T03:18:14;101629.47;;;18.75;41.72
26563;BME280;14217;50.986;5.826;2023-04-08T03:23:17;101628.41;;;18.80;41.80
26563;BME280;14217;50.986;5.826;2023-04-08T03:28:19;101624.03;;;18.78;41.60
26563;BME280;14217;50.986;5.826;2023-04-08T03:33:21;101629.34;;;18.78;41.74
26563;BME280;14217;50.986;5.826;2023-04-08T03:38:23;101625.84;;;18.79;41.56
26563;BME280;14217;50.986;5.826;2023-04-08T03:43:25;101630.25;;;18.78;41.92
26563;BME280;14217;50.986;5.826;2023-04-08T03:48:27;101637.31;;;18.79;41.75
26563;BME280;14217;50.986;5.826;2023-04-08T03:53:29;101630.28;;;18.77;41.93
26563;BME280;14217;50.986;5.826;2023-04-08T03:58:31;101629.47;;;18.75;41.80
26563;BME280;14217;50.986;5.826;2023-04-08T04:03:33;101628.53;;;18.76;41.79
26563;BME280;14217;50.986;5.826;2023-04-08T04:08:35;101632.94;;;18.77;41.73
26563;BME280;14217;50.986;5.826;2023-04-08T04:13:37;101627.72;;;18.74;41.81
26563;BME280;14217;50.986;5.826;2023-04-08T04:18:40;101634.66;;;18.78;41.69
26563;BME280;14217;50.986;5.826;2023-04-08T04:23:41;101640.03;;;18.76;41.62
26563;BME280;14217;50.986;5.826;2023-04-08T04:28:44;101641.88;;;18.74;42.00
26563;BME280;14217;50.986;5.826;2023-04-08T04:33:46;101648.84;;;18.78;41.94
26563;BME280;14217;50.986;5.826;2023-04-08T04:38:49;101650.72;;;18.75;41.91
26563;BME280;14217;50.986;5.826;2023-04-08T04:43:52;101650.59;;;18.79;41.89
26563;BME280;14217;50.986;5.826;2023-04-08T04:48:54;101654.22;;;18.75;41.68
26563;BME280;14217;50.986;5.826;2023-04-08T04:53:57;101655.19;;;18.73;41.84
26563;BME280;14217;50.986;5.826;2023-04-08T04:58:59;101657.75;;;18.76;41.88
26563;BME280;14217;50.986;5.826;2023-04-08T05:04:01;101655.94;;;18.76;41.81
26563;BME280;14217;50.986;5.826;2023-04-08T05:09:03;101664.81;;;18.77;41.82
26563;BME280;14217;50.986;5.826;2023-04-08T05:14:05;101671.09;;;18.74;41.67
26563;BME280;14217;50.986;5.826;2023-04-08T05:19:08;101676.31;;;18.76;41.91
26563;BME280;14217;50.986;5.826;2023-04-08T05:24:10;101683.34;;;18.78;41.53
26563;BME280;14217;50.986;5.826;2023-04-08T05:29:12;101694.91;;;18.76;41.96
26563;BME280;14217;50.986;5.826;2023-04-08T05:34:14;101689.69;;;18.74;41.97
26563;BME280;14217;50.986;5.826;2023-04-08T05:39:20;101700.19;;;18.77;41.65
26563;BME280;14217;50.986;5.826;2023-04-08T05:44:22;101703.84;;;18.73;41.75
26563;BME280;14217;50.986;5.826;2023-04-08T05:49:24;101706.41;;;18.76;41.93
26563;BME280;14217;50.986;5.826;2023-04-08T05:54:26;101713.59;;;18.73;42.10
26563;BME280;14217;50.986;5.826;2023-04-08T05:59:28;101717.94;;;18.75;42.05
26563;BME280;14217;50.986;5.826;2023-04-08T06:04:30;101722.47;;;18.72;44.31
26563;BME280;14217;50.986;5.826;2023-04-08T06:09:35;101723.09;;;18.81;44.15
26563;BME280;14217;50.986;5.826;2023-04-08T06:14:38;101721.41;;;18.77;44.87
26563;BME280;14217;50.986;5.826;2023-04-08T06:19:40;101725.88;;;18.77;45.13
26563;BME280;14217;50.986;5.826;2023-04-08T06:24:42;101725.19;;;18.70;45.17
26563;BME280;14217;50.986;5.826;2023-04-08T06:29:44;101732.47;;;18.63;44.93
26563;BME280;14217;50.986;5.826;2023-04-08T06:34:47;101741.13;;;18.70;44.75
26563;BME280;14217;50.986;5.826;2023-04-08T06:39:49;101747.16;;;18.75;45.01
26563;BME280;14217;50.986;5.826;2023-04-08T06:44:52;101749.72;;;18.78;44.87
26563;BME280;14217;50.986;5.826;2023-04-08T06:49:54;101756.09;;;18.73;44.70
26563;BME280;14217;50.986;5.826;2023-04-08T06:54:56;101763.91;;;18.77;44.50
26563;BME280;14217;50.986;5.826;2023-04-08T06:59:58;101767.53;;;18.75;44.61
26563;BME280;14217;50.986;5.826;2023-04-08T07:05:01;101764.88;;;18.75;44.11
26563;BME280;14217;50.986;5.826;2023-04-08T07:10:03;101767.53;;;18.75;44.12
26563;BME280;14217;50.986;5.826;2023-04-08T07:15:05;101774.53;;;18.79;43.64
26563;BME280;14217;50.986;5.826;2023-04-08T07:20:08;101769.09;;;18.82;43.75
26563;BME280;14217;50.986;5.826;2023-04-08T07:25:10;101776.09;;;18.84;43.56
26563;BME280;14217;50.986;5.826;2023-04-08T07:30:12;101791.13;;;18.85;43.37
26563;BME280;14217;50.986;5.826;2023-04-08T07:35:14;101798.28;;;18.83;43.06
26563;BME280;14217;50.986;5.826;2023-04-08T07:40:19;101788.53;;;18.82;42.90
26563;BME280;14217;50.986;5.826;2023-04-08T07:45:22;101801.81;;;18.82;42.84
26563;BME280;14217;50.986;5.826;2023-04-08T07:50:24;101806.19;;;18.85;42.71
26563;BME280;14217;50.986;5.826;2023-04-08T07:55:26;101813.34;;;18.83;42.97
26563;BME280;14217;50.986;5.826;2023-04-08T08:00:28;101809.72;;;18.85;42.53
26563;BME280;14217;50.986;5.826;2023-04-08T08:05:32;101813.28;;;18.84;42.47
26563;BME280;14217;50.986;5.826;2023-04-08T08:10:34;101814.06;;;18.88;42.38
26563;BME280;14217;50.986;5.826;2023-04-08T08:15:36;101820.34;;;18.85;42.60
26563;BME280;14217;50.986;5.826;2023-04-08T08:20:38;101825.69;;;18.84;42.40
26563;BME280;14217;50.986;5.826;2023-04-08T08:25:40;101825.53;;;18.88;42.42
26563;BME280;14217;50.986;5.826;2023-04-08T08:30:42;101822.13;;;18.85;42.21
26563;BME280;14217;50.986;5.826;2023-04-08T08:35:43;101835.22;;;18.91;42.14
26563;BME280;14217;50.986;5.826;2023-04-08T08:40:46;101833.50;;;18.88;41.96
26563;BME280;14217;50.986;5.826;2023-04-08T08:45:48;101834.97;;;18.99;41.96
26563;BME280;14217;50.986;5.826;2023-04-08T08:50:50;101841.03;;;19.04;41.49
26563;BME280;14217;50.986;5.826;2023-04-08T08:55:52;101846.16;;;19.10;41.48
26563;BME280;14217;50.986;5.826;2023-04-08T09:00:57;101854.38;;;19.01;41.81
26563;BME280;14217;50.986;5.826;2023-04-08T09:06:00;101848.34;;;18.96;41.78
26563;BME280;14217;50.986;5.826;2023-04-08T09:11:16;101856.19;;;19.00;41.86
26563;BME280;14217;50.986;5.826;2023-04-08T09:16:19;101860.44;;;19.06;41.41
26563;BME280;14217;50.986;5.826;2023-04-08T09:21:22;101854.94;;;19.12;41.39
26563;BME280;14217;50.986;5.826;2023-04-08T09:26:25;101858.63;;;19.08;41.83
26563;BME280;14217;50.986;5.826;2023-04-08T09:31:29;101853.53;;;19.00;42.95
26563;BME280;14217;50.986;5.826;2023-04-08T09:36:32;101864.97;;;19.02;42.87
26563;BME280;14217;50.986;5.826;2023-04-08T09:41:35;101866.81;;;19.00;42.58
26563;BME280;14217;50.986;5.826;2023-04-08T09:52:08;101872.16;;;18.99;42.38
26563;BME280;14217;50.986;5.826;2023-04-08T10:03:01;101877.47;;;18.99;42.16
26563;BME280;14217;50.986;5.826;2023-04-08T10:08:08;101873.84;;;19.01;42.26
26563;BME280;14217;50.986;5.826;2023-04-08T10:13:10;101863.84;;;19.09;42.10
26563;BME280;14217;50.986;5.826;2023-04-08T10:23:16;101866.59;;;19.08;42.12
26563;BME280;14217;50.986;5.826;2023-04-08T10:38:30;101864.75;;;19.10;41.83
26563;BME280;14217;50.986;5.826;2023-04-08T10:43:33;101861.16;;;19.11;41.78
26563;BME280;14217;50.986;5.826;2023-04-08T10:48:35;101855.84;;;19.11;42.01
26563;BME280;14217;50.986;5.826;2023-04-08T10:53:38;101856.78;;;19.10;41.95
26563;BME280;14217;50.986;5.826;2023-04-08T11:03:50;101848.00;;;19.08;42.05
26563;BME280;14217;50.986;5.826;2023-04-08T11:08:56;101848.88;;;19.07;41.74
26563;BME280;14217;50.986;5.826;2023-04-08T11:13:58;101849.72;;;19.09;41.88
26563;BME280;14217;50.986;5.826;2023-04-08T11:19:04;101841.75;;;19.09;41.78
26563;BME280;14217;50.986;5.826;2023-04-08T11:24:09;101836.56;;;19.04;41.85
26563;BME280;14217;50.986;5.826;2023-04-08T11:29:13;101843.56;;;19.07;41.71
26563;BME280;14217;50.986;5.826;2023-04-08T11:34:21;101838.38;;;19.04;41.63
26563;BME280;14217;50.986;5.826;2023-04-08T11:39:24;101840.03;;;19.08;41.92
26563;BME280;14217;50.986;5.826;2023-04-08T11:44:33;101834.69;;;19.08;41.76
26563;BME280;14217;50.986;5.826;2023-04-08T11:49:45;101843.50;;;19.10;41.77
26563;BME280;14217;50.986;5.826;2023-04-08T11:54:47;101845.34;;;19.08;41.73
26563;BME280;14217;50.986;5.826;2023-04-08T11:59:49;101835.66;;;19.05;41.79
26563;BME280;14217;50.986;5.826;2023-04-08T12:04:54;101846.34;;;19.04;41.91
26563;BME280;14217;50.986;5.826;2023-04-08T12:09:57;101844.44;;;19.07;41.58
26563;BME280;14217;50.986;5.826;2023-04-08T12:14:59;101841.03;;;19.04;41.49
26563;BME280;14217;50.986;5.826;2023-04-08T12:20:01;101853.34;;;19.06;41.64
26563;BME280;14217;50.986;5.826;2023-04-08T12:25:05;101847.06;;;19.09;41.39
26563;BME280;14217;50.986;5.826;2023-04-08T12:30:08;101842.69;;;19.08;41.66
26563;BME280;14217;50.986;5.826;2023-04-08T12:35:10;101853.38;;;19.05;41.66
26563;BME280;14217;50.986;5.826;2023-04-08T12:40:12;101844.44;;;19.07;41.37
26563;BME280;14217;50.986;5.826;2023-04-08T12:45:15;101842.69;;;19.08;41.26
26563;BME280;14217;50.986;5.826;2023-04-08T12:50:18;101837.41;;;19.06;41.23
26563;BME280;14217;50.986;5.826;2023-04-08T12:55:20;101834.69;;;19.08;41.47
26563;BME280;14217;50.986;5.826;2023-04-08T13:00:26;101829.41;;;19.08;41.45
26563;BME280;14217;50.986;5.826;2023-04-08T13:05:28;101826.75;;;19.08;41.12
26563;BME280;14217;50.986;5.826;2023-04-08T13:10:44;101831.06;;;19.11;41.29
26563;BME280;14217;50.986;5.826;2023-04-08T13:15:46;101831.16;;;19.07;41.10
26563;BME280;14217;50.986;5.826;2023-04-08T13:20:48;101823.16;;;19.09;41.09
26563;BME280;14217;50.986;5.826;2023-04-08T13:25:50;101829.28;;;19.11;41.17
26563;BME280;14217;50.986;5.826;2023-04-08T13:30:52;101824.91;;;19.10;41.05
26563;BME280;14217;50.986;5.826;2023-04-08T13:35:55;101822.13;;;19.13;41.06
26563;BME280;14217;50.986;5.826;2023-04-08T13:40:57;101822.13;;;19.13;40.94
26563;BME280;14217;50.986;5.826;2023-04-08T13:45:59;101820.31;;;19.15;41.15
26563;BME280;14217;50.986;5.826;2023-04-08T13:51:01;101809.72;;;19.14;40.84
26563;BME280;14217;50.986;5.826;2023-04-08T13:56:03;101815.97;;;19.13;40.86
26563;BME280;14217;50.986;5.826;2023-04-08T14:01:05;101810.56;;;19.14;40.75
26563;BME280;14217;50.986;5.826;2023-04-08T14:06:07;101807.91;;;19.14;40.94
26563;BME280;14217;50.986;5.826;2023-04-08T14:11:09;101804.50;;;19.11;40.71
26563;BME280;14217;50.986;5.826;2023-04-08T14:16:11;101799.25;;;19.09;41.29
26563;BME280;14217;50.986;5.826;2023-04-08T14:21:13;101810.72;;;19.09;41.08
26563;BME280;14217;50.986;5.826;2023-04-08T14:26:17;101798.47;;;19.05;41.12
26563;BME280;14217;50.986;5.826;2023-04-08T14:31:19;101802.81;;;19.08;40.84
26563;BME280;14217;50.986;5.826;2023-04-08T14:36:21;101800.09;;;19.09;40.75
26563;BME280;14217;50.986;5.826;2023-04-08T14:41:25;101798.47;;;19.05;41.01
26563;BME280;14217;50.986;5.826;2023-04-08T14:46:27;101798.25;;;19.12;40.65
26563;BME280;14217;50.986;5.826;2023-04-08T14:51:29;101810.69;;;19.11;40.73
26563;BME280;14217;50.986;5.826;2023-04-08T14:56:32;101800.88;;;19.13;40.79
26563;BME280;14217;50.986;5.826;2023-04-08T15:01:34;101802.69;;;19.13;40.83
26563;BME280;14217;50.986;5.826;2023-04-08T15:06:36;101803.56;;;19.12;40.42
26563;BME280;14217;50.986;5.826;2023-04-08T15:11:41;101802.09;;;19.03;40.52
26563;BME280;14217;50.986;5.826;2023-04-08T15:16:43;101811.06;;;18.99;40.29
26563;BME280;14217;50.986;5.826;2023-04-08T15:21:45;101808.34;;;19.02;39.94
26563;BME280;14217;50.986;5.826;2023-04-08T15:26:48;101795.91;;;19.02;39.68
26563;BME280;14217;50.986;5.826;2023-04-08T15:31:50;101799.19;;;19.11;39.50
26563;BME280;14217;50.986;5.826;2023-04-08T15:36:53;101795.59;;;19.12;39.58
26563;BME280;14217;50.986;5.826;2023-04-08T15:41:57;101800.75;;;18.89;41.41
26563;BME280;14217;50.986;5.826;2023-04-08T15:46:59;101792.94;;;19.12;40.73
26563;BME280;14217;50.986;5.826;2023-04-08T15:52:02;101797.22;;;19.17;41.00
26563;BME280;14217;50.986;5.826;2023-04-08T15:57:04;101797.28;;;19.14;41.02
26563;BME280;14217;50.986;5.826;2023-04-08T16:02:06;101799.19;;;19.11;40.95
26563;BME280;14217;50.986;5.826;2023-04-08T16:07:08;101810.66;;;19.13;40.84
26563;BME280;14217;50.986;5.826;2023-04-08T16:12:10;101807.13;;;19.12;40.65
26563;BME280;14217;50.986;5.826;2023-04-08T16:17:13;101807.91;;;19.14;40.69
26563;BME280;14217;50.986;5.826;2023-04-08T16:22:15;101801.91;;;19.09;40.68
26563;BME280;14217;50.986;5.826;2023-04-08T16:27:17;101803.53;;;18.85;40.79
26563;BME280;14217;50.986;5.826;2023-04-08T16:32:19;101808.47;;;18.36;41.83
26563;BME280;14217;50.986;5.826;2023-04-08T16:37:21;101806.56;;;18.41;41.98
26563;BME280;14217;50.986;5.826;2023-04-08T16:42:24;101814.47;;;18.74;41.43
26563;BME280;14217;50.986;5.826;2023-04-08T16:47:26;101804.88;;;18.39;41.47
26563;BME280;14217;50.986;5.826;2023-04-08T16:52:28;101812.75;;;18.40;41.62
26563;BME280;14217;50.986;5.826;2023-04-08T16:57:30;101811.41;;;18.57;41.13
26563;BME280;14217;50.986;5.826;2023-04-08T17:02:33;101811.69;;;18.47;41.56
26563;BME280;14217;50.986;5.826;2023-04-08T17:07:35;101816.84;;;18.83;40.63
26563;BME280;14217;50.986;5.826;2023-04-08T17:12:37;101820.81;;;18.68;40.62
26563;BME280;14217;50.986;5.826;2023-04-08T17:17:39;101829.75;;;18.96;39.46
26563;BME280;14217;50.986;5.826;2023-04-08T17:22:41;101824.84;;;19.12;39.88
26563;BME280;14217;50.986;5.826;2023-04-08T17:27:44;101824.69;;;19.16;39.54
26563;BME280;14217;50.986;5.826;2023-04-08T17:32:46;101826.28;;;19.22;39.67
26563;BME280;14217;50.986;5.826;2023-04-08T17:37:49;101828.94;;;19.22;39.64
26563;BME280;14217;50.986;5.826;2023-04-08T17:42:51;101833.34;;;19.23;39.69
26563;BME280;14217;50.986;5.826;2023-04-08T17:47:53;101837.78;;;19.22;39.80
26563;BME280;14217;50.986;5.826;2023-04-08T17:52:55;101833.44;;;19.20;40.02
26563;BME280;14217;50.986;5.826;2023-04-08T17:57:57;101839.03;;;19.11;40.68
26563;BME280;14217;50.986;5.826;2023-04-08T18:02:59;101839.72;;;19.17;40.75
26563;BME280;14217;50.986;5.826;2023-04-08T18:08:02;101844.16;;;19.17;40.74
26563;BME280;14217;50.986;5.826;2023-04-08T18:13:04;101841.66;;;19.12;41.02
26563;BME280;14217;50.986;5.826;2023-04-08T18:18:12;101846.28;;;19.05;40.87
26563;BME280;14217;50.986;5.826;2023-04-08T18:23:19;101856.91;;;19.05;41.05
26563;BME280;14217;50.986;5.826;2023-04-08T18:28:21;101858.66;;;19.06;40.75
26563;BME280;14217;50.986;5.826;2023-04-08T18:33:24;101858.72;;;19.03;40.70
26563;BME280;14217;50.986;5.826;2023-04-08T18:38:26;101869.31;;;19.05;40.62
26563;BME280;14217;50.986;5.826;2023-04-08T18:43:28;101865.78;;;19.04;40.71
26563;BME280;14217;50.986;5.826;2023-04-08T18:48:30;101871.19;;;19.01;40.66
26563;BME280;14217;50.986;5.826;2023-04-08T18:53:33;101869.41;;;19.02;40.36
26563;BME280;14217;50.986;5.826;2023-04-08T18:58:35;101877.56;;;18.96;40.57
26563;BME280;14217;50.986;5.826;2023-04-08T19:03:38;101868.63;;;18.98;40.68
26563;BME280;14217;50.986;5.826;2023-04-08T19:08:40;101874.84;;;18.97;40.38
26563;BME280;14217;50.986;5.826;2023-04-08T19:13:43;101877.44;;;19.00;40.47
26563;BME280;14217;50.986;5.826;2023-04-08T19:18:45;101877.47;;;18.99;40.59
26563;BME280;14217;50.986;5.826;2023-04-08T19:23:47;101884.59;;;18.97;40.53
26563;BME280;14217;50.986;5.826;2023-04-08T19:28:50;101886.41;;;18.96;40.42
26563;BME280;14217;50.986;5.826;2023-04-08T19:33:52;101888.19;;;18.96;40.28
26563;BME280;14217;50.986;5.826;2023-04-08T19:38:54;101895.34;;;18.94;40.56
26563;BME280;14217;50.986;5.826;2023-04-08T19:43:56;101894.47;;;18.93;40.49
26563;BME280;14217;50.986;5.826;2023-04-08T19:48:59;101897.00;;;18.98;40.29
26563;BME280;14217;50.986;5.826;2023-04-08T19:54:01;101896.16;;;18.96;40.55
26563;BME280;14217;50.986;5.826;2023-04-08T19:59:03;101893.66;;;18.91;40.52
26563;BME280;14217;50.986;5.826;2023-04-08T20:04:05;101899.81;;;18.92;40.26
26563;BME280;14217;50.986;5.826;2023-04-08T20:09:07;101895.34;;;18.94;40.24
26563;BME280;14217;50.986;5.826;2023-04-08T20:14:09;101897.22;;;18.90;40.60
26563;BME280;14217;50.986;5.826;2023-04-08T20:19:11;101899.81;;;18.92;40.35
26563;BME280;14217;50.986;5.826;2023-04-08T20:24:13;101891.03;;;18.89;40.33
26563;BME280;14217;50.986;5.826;2023-04-08T20:29:15;101900.78;;;18.89;40.63
26563;BME280;14217;50.986;5.826;2023-04-08T20:34:17;101900.72;;;18.91;40.62
26563;BME280;14217;50.986;5.826;2023-04-08T20:39:19;101888.34;;;18.91;40.46
26563;BME280;14217;50.986;5.826;2023-04-08T20:44:24;101890.16;;;18.89;40.55
26563;BME280;14217;50.986;5.826;2023-04-08T20:49:26;101901.66;;;18.89;40.38
26563;BME280;14217;50.986;5.826;2023-04-08T20:54:28;101895.41;;;18.91;40.28
26563;BME280;14217;50.986;5.826;2023-04-08T20:59:31;101891.94;;;18.88;40.29
26563;BME280;14217;50.986;5.826;2023-04-08T21:04:33;101893.69;;;18.89;40.51
26563;BME280;14217;50.986;5.826;2023-04-08T21:09:36;101889.19;;;18.92;40.50
26563;BME280;14217;50.986;5.826;2023-04-08T21:14:38;101895.38;;;18.92;40.47
26563;BME280;14217;50.986;5.826;2023-04-08T21:19:40;101891.03;;;18.89;40.41
26563;BME280;14217;50.986;5.826;2023-04-08T21:24:42;101889.25;;;18.90;40.53
26563;BME280;14217;50.986;5.826;2023-04-08T21:29:44;101885.75;;;18.88;40.51
26563;BME280;14217;50.986;5.826;2023-04-08T21:34:46;101886.53;;;18.92;40.28
26563;BME280;14217;50.986;5.826;2023-04-08T21:39:48;101894.59;;;18.88;40.61
26563;BME280;14217;50.986;5.826;2023-04-08T21:44:51;101889.38;;;18.85;40.63
26563;BME280;14217;50.986;5.826;2023-04-08T21:49:53;101891.16;;;18.85;40.67
26563;BME280;14217;50.986;5.826;2023-04-08T21:54:56;101892.03;;;18.85;40.61
26563;BME280;14217;50.986;5.826;2023-04-08T21:59:58;101895.53;;;18.87;40.63
26563;BME280;14217;50.986;5.826;2023-04-08T22:05:00;101898.13;;;18.89;40.33
26563;BME280;14217;50.986;5.826;2023-04-08T22:10:02;101902.47;;;18.92;40.57
26563;BME280;14217;50.986;5.826;2023-04-08T22:15:05;101900.72;;;18.91;40.58
26563;BME280;14217;50.986;5.826;2023-04-08T22:20:07;101895.41;;;18.91;40.29
26563;BME280;14217;50.986;5.826;2023-04-08T22:25:09;101899.00;;;18.89;40.67
26563;BME280;14217;50.986;5.826;2023-04-08T22:30:11;101892.84;;;18.87;40.56
26563;BME280;14217;50.986;5.826;2023-04-08T22:35:13;101889.28;;;18.88;40.41
26563;BME280;14217;50.986;5.826;2023-04-08T22:40:16;101888.44;;;18.86;40.46
26563;BME280;14217;50.986;5.826;2023-04-08T22:45:18;101883.09;;;18.88;40.60
26563;BME280;14217;50.986;5.826;2023-04-08T22:50:20;101890.19;;;18.87;40.67
26563;BME280;14217;50.986;5.826;2023-04-08T22:55:23;101883.97;;;18.88;40.46
26563;BME280;14217;50.986;5.826;2023-04-08T23:00:25;101883.94;;;18.90;40.52
26563;BME280;14217;50.986;5.826;2023-04-08T23:05:27;101887.44;;;18.91;40.54
26563;BME280;14217;50.986;5.826;2023-04-08T23:10:30;101878.72;;;18.87;40.73
26563;BME280;14217;50.986;5.826;2023-04-08T23:15:32;101879.53;;;18.89;40.55
26563;BME280;14217;50.986;5.826;2023-04-08T23:20:34;101875.06;;;18.91;40.44
26563;BME280;14217;50.986;5.826;2023-04-08T23:25:36;101876.97;;;18.86;40.64
26563;BME280;14217;50.986;5.826;2023-04-08T23:30:38;101875.28;;;18.83;40.71
26563;BME280;14217;50.986;5.826;2023-04-08T23:35:41;101876.94;;;18.87;40.61
26563;BME280;14217;50.986;5.826;2023-04-08T23:40:43;101876.09;;;18.85;40.82
26563;BME280;14217;50.986;5.826;2023-04-08T23:45:45;101874.41;;;18.83;40.63
26563;BME280;14217;50.986;5.826;2023-04-08T23:50:53;101882.31;;;18.84;40.49
26563;BME280;14217;50.986;5.826;2023-04-08T23:56:05;101880.44;;;18.88;40.70
